createdAt,value
2018-09-30T00:01:36.533Z,40.68
2018-09-30T00:04:02.513Z,41.00
2018-09-30T00:06:28.453Z,41.52
2018-09-30T00:08:54.393Z,41.14
2018-09-30T00:11:20.364Z,41.80
2018-09-30T00:13:46.344Z,41.92
2018-09-30T00:16:12.285Z,41.87
2018-09-30T00:18:38.265Z,42.28
2018-09-30T00:21:04.210Z,41.76
2018-09-30T00:23:30.150Z,41.57
2018-09-30T00:25:56.114Z,42.07
2018-09-30T00:28:22.142Z,41.92
2018-09-30T00:30:48.093Z,42.10
2018-09-30T00:33:14.045Z,42.17
2018-09-30T00:35:40.000Z,41.88
2018-09-30T00:38:05.981Z,41.65
2018-09-30T00:40:31.937Z,41.30
2018-09-30T00:42:57.900Z,42.13
2018-09-30T00:45:23.883Z,42.26
2018-09-30T00:47:49.833Z,42.09
2018-09-30T00:50:15.781Z,42.15
2018-09-30T00:52:41.731Z,41.50
2018-09-30T00:55:07.672Z,42.16
2018-09-30T00:57:33.650Z,41.95
2018-09-30T00:59:59.648Z,42.31
2018-09-30T01:02:25.614Z,42.82
2018-09-30T01:04:51.591Z,42.95
2018-09-30T01:07:17.554Z,42.25
2018-09-30T01:12:16.003Z,42.22
2018-09-30T01:14:41.957Z,41.78
2018-09-30T01:17:07.908Z,42.12
2018-09-30T01:19:33.842Z,42.20
2018-09-30T01:21:59.815Z,42.61
2018-09-30T01:24:25.767Z,42.17
2018-09-30T01:26:51.747Z,42.24
2018-09-30T01:29:17.688Z,42.83
2018-09-30T01:31:43.678Z,41.93
2018-09-30T01:34:09.632Z,41.82
2018-09-30T01:36:35.604Z,41.27
2018-09-30T01:39:01.563Z,41.71
2018-09-30T01:41:27.543Z,41.62
2018-09-30T01:43:53.510Z,40.94
2018-09-30T01:46:19.483Z,41.39
2018-09-30T01:48:45.440Z,41.44
2018-09-30T01:51:11.389Z,40.53
2018-09-30T01:53:37.343Z,40.94
2018-09-30T01:56:03.297Z,41.35
2018-09-30T01:58:29.294Z,41.34
2018-09-30T02:00:55.232Z,40.29
2018-09-30T02:03:21.182Z,40.15
2018-09-30T02:05:47.158Z,40.50
2018-09-30T02:08:13.106Z,40.41
2018-09-30T02:10:39.048Z,40.38
2018-09-30T02:13:05.037Z,39.70
2018-09-30T02:15:31.043Z,40.16
2018-09-30T02:17:57.010Z,39.96
2018-09-30T02:20:22.976Z,39.77
2018-09-30T02:22:48.967Z,40.11
2018-09-30T02:25:14.971Z,40.04
2018-09-30T02:27:40.937Z,39.96
2018-09-30T02:30:06.917Z,39.92
2018-09-30T02:32:32.887Z,39.21
2018-09-30T02:34:58.854Z,39.41
2018-09-30T02:37:24.837Z,38.76
2018-09-30T02:39:50.823Z,39.13
2018-09-30T02:42:16.776Z,39.30
2018-09-30T02:44:42.807Z,39.82
2018-09-30T02:47:08.769Z,39.34
2018-09-30T02:49:34.729Z,39.38
2018-09-30T02:52:00.711Z,39.71
2018-09-30T02:54:26.684Z,39.96
2018-09-30T02:56:52.696Z,39.45
2018-09-30T02:59:18.666Z,39.79
2018-09-30T03:01:44.676Z,39.99
2018-09-30T03:04:10.614Z,40.03
2018-09-30T03:06:36.608Z,40.44
2018-09-30T03:09:02.574Z,39.86
2018-09-30T03:11:28.536Z,40.22
2018-09-30T03:13:54.467Z,40.38
2018-09-30T03:16:20.416Z,40.29
2018-09-30T03:18:46.394Z,40.56
2018-09-30T03:21:12.340Z,40.93
2018-09-30T03:23:38.284Z,40.36
2018-09-30T03:26:04.266Z,40.26
2018-09-30T03:28:30.245Z,40.58
2018-09-30T03:30:56.201Z,40.36
2018-09-30T03:33:22.134Z,40.95
2018-09-30T03:35:48.065Z,40.09
2018-09-30T03:38:14.033Z,41.16
2018-09-30T03:40:39.976Z,41.03
2018-09-30T03:43:05.907Z,41.37
2018-09-30T03:45:31.834Z,41.83
2018-09-30T03:47:57.794Z,41.79
2018-09-30T03:50:23.756Z,42.22
2018-09-30T03:52:49.748Z,41.35
2018-09-30T03:55:15.692Z,41.49
2018-09-30T03:57:41.671Z,40.54
2018-09-30T04:00:07.640Z,41.20
2018-09-30T04:02:33.627Z,41.32
2018-09-30T04:04:59.574Z,41.25
2018-09-30T04:07:25.544Z,41.84
2018-09-30T04:09:51.499Z,41.78
2018-09-30T04:12:17.477Z,41.17
2018-09-30T04:14:43.433Z,41.39
2018-09-30T04:17:09.549Z,40.85
2018-09-30T04:19:35.398Z,41.30
2018-09-30T04:22:01.437Z,41.34
2018-09-30T04:24:27.408Z,42.08
2018-09-30T04:26:53.359Z,41.73
2018-09-30T04:29:19.319Z,41.33
2018-09-30T04:31:45.272Z,40.67
2018-09-30T04:34:11.208Z,41.10
2018-09-30T04:36:37.182Z,40.44
2018-09-30T04:39:03.121Z,40.87
2018-09-30T04:41:29.084Z,41.14
2018-09-30T04:43:55.036Z,40.71
2018-09-30T04:46:21.002Z,40.68
2018-09-30T04:48:46.932Z,40.62
2018-09-30T04:51:13.149Z,40.98
2018-09-30T04:53:39.336Z,40.70
2018-09-30T04:56:05.356Z,41.21
2018-09-30T04:58:31.331Z,41.49
2018-09-30T05:00:57.405Z,41.56
2018-09-30T05:03:23.374Z,41.21
2018-09-30T05:05:49.357Z,40.84
2018-09-30T05:08:15.280Z,40.75
2018-09-30T05:10:41.270Z,40.97
2018-09-30T05:13:07.289Z,41.40
2018-09-30T05:15:33.351Z,40.67
2018-09-30T05:17:59.363Z,41.33
2018-09-30T05:20:26.405Z,41.47
2018-09-30T05:22:52.400Z,41.61
2018-09-30T05:25:18.457Z,41.64
2018-09-30T05:27:44.442Z,41.02
2018-09-30T05:30:10.490Z,41.49
2018-09-30T05:32:36.529Z,41.55
2018-09-30T05:35:02.523Z,41.22
2018-09-30T05:37:28.508Z,41.23
2018-09-30T05:39:54.505Z,41.83
2018-09-30T05:42:20.582Z,41.37
2018-09-30T05:44:46.546Z,41.87
2018-09-30T05:47:12.545Z,42.03
2018-09-30T05:49:38.539Z,41.12
2018-09-30T05:52:04.529Z,40.58
2018-09-30T05:54:30.484Z,40.25
2018-09-30T05:56:56.451Z,40.47
2018-09-30T05:59:23.524Z,39.45
2018-09-30T06:01:50.570Z,39.35
2018-09-30T06:04:16.591Z,38.78
2018-09-30T06:06:42.585Z,38.60
2018-09-30T06:09:08.687Z,38.69
2018-09-30T06:11:34.525Z,38.01
2018-09-30T06:14:00.569Z,37.56
2018-09-30T06:16:26.512Z,37.74
2018-09-30T06:18:52.471Z,37.30
2018-09-30T06:21:18.461Z,37.25
2018-09-30T06:23:44.501Z,36.81
2018-09-30T06:26:10.441Z,35.61
2018-09-30T06:28:36.418Z,35.90
2018-09-30T06:31:02.375Z,35.46
2018-09-30T06:33:28.375Z,35.16
2018-09-30T06:35:54.321Z,35.27
2018-09-30T06:38:20.333Z,35.22
2018-09-30T06:40:46.281Z,34.46
2018-09-30T06:43:12.238Z,34.40
2018-09-30T06:45:38.216Z,33.40
2018-09-30T06:48:04.179Z,33.59
2018-09-30T06:50:30.146Z,32.86
2018-09-30T06:52:56.110Z,32.02
2018-09-30T06:55:22.050Z,32.29
2018-09-30T06:57:48.002Z,31.49
2018-09-30T07:00:14.030Z,32.18
2018-09-30T07:02:39.991Z,30.29
2018-09-30T07:05:05.950Z,30.86
2018-09-30T07:07:31.964Z,31.05
2018-09-30T07:09:57.929Z,30.23
2018-09-30T07:12:23.890Z,30.66
2018-09-30T07:14:49.822Z,30.06
2018-09-30T07:17:15.783Z,30.49
2018-09-30T07:19:41.733Z,30.67
2018-09-30T07:22:07.721Z,29.45
2018-09-30T07:24:33.719Z,30.00
2018-09-30T07:26:59.676Z,30.00
2018-09-30T07:29:25.668Z,30.42
2018-09-30T07:31:51.719Z,29.00
2018-09-30T07:34:20.590Z,29.16
2018-09-30T07:36:46.637Z,28.65
2018-09-30T07:39:12.645Z,29.34
2018-09-30T07:41:38.600Z,29.30
2018-09-30T07:44:04.567Z,29.45
2018-09-30T07:46:30.629Z,28.06
2018-09-30T07:48:56.635Z,29.07
2018-09-30T07:51:22.702Z,28.94
2018-09-30T07:53:49.170Z,29.45
2018-09-30T07:56:15.149Z,28.96
2018-09-30T07:58:41.089Z,29.84
2018-09-30T08:01:07.050Z,29.37
2018-09-30T08:03:32.992Z,29.37
2018-09-30T08:05:58.960Z,29.81
2018-09-30T08:08:24.912Z,29.44
2018-09-30T08:10:50.871Z,30.14
2018-09-30T08:13:16.849Z,30.27
2018-09-30T08:15:43.451Z,29.93
2018-09-30T08:18:10.533Z,30.31
2018-09-30T08:20:36.746Z,30.64
2018-09-30T08:23:02.713Z,30.08
2018-09-30T08:25:28.654Z,30.43
2018-09-30T08:27:54.600Z,29.62
2018-09-30T08:30:20.553Z,30.33
2018-09-30T08:32:46.559Z,30.97
2018-09-30T08:35:12.513Z,30.24
2018-09-30T08:37:38.516Z,29.63
2018-09-30T08:40:04.933Z,29.86
2018-09-30T08:42:30.888Z,29.91
2018-09-30T08:44:56.846Z,29.33
2018-09-30T08:47:22.895Z,30.22
2018-09-30T08:49:48.801Z,30.40
2018-09-30T08:52:14.781Z,29.79
2018-09-30T08:54:40.753Z,29.45
2018-09-30T08:57:06.861Z,29.87
2018-09-30T08:59:32.802Z,29.19
2018-09-30T09:01:58.768Z,28.25
2018-09-30T09:04:24.713Z,28.96
2018-09-30T09:06:50.783Z,29.32
2018-09-30T09:09:16.733Z,28.74
2018-09-30T09:11:42.760Z,29.28
2018-09-30T09:14:08.700Z,28.56
2018-09-30T09:16:34.677Z,28.59
2018-09-30T09:19:00.645Z,27.76
2018-09-30T09:21:26.603Z,27.66
2018-09-30T09:23:52.551Z,27.95
2018-09-30T09:26:18.499Z,27.84
2018-09-30T09:28:44.460Z,27.68
2018-09-30T09:31:10.445Z,27.69
2018-09-30T09:33:36.396Z,27.29
2018-09-30T09:36:02.349Z,27.95
2018-09-30T09:38:28.357Z,28.21
2018-09-30T09:40:54.264Z,28.16
2018-09-30T09:43:20.212Z,27.46
2018-09-30T09:45:46.190Z,27.48
2018-09-30T09:48:12.135Z,28.37
2018-09-30T09:50:38.089Z,26.69
2018-09-30T09:53:04.044Z,27.62
2018-09-30T09:55:30.001Z,26.79
2018-09-30T09:57:55.958Z,28.31
2018-09-30T10:00:21.898Z,28.34
2018-09-30T10:02:47.896Z,26.28
2018-09-30T10:05:13.917Z,27.45
2018-09-30T10:07:39.804Z,27.67
2018-09-30T10:10:05.776Z,28.43
2018-09-30T10:12:31.716Z,26.69
2018-09-30T10:14:57.696Z,27.88
2018-09-30T10:17:23.667Z,27.91
2018-09-30T10:19:49.609Z,26.79
2018-09-30T10:22:15.577Z,26.28
2018-09-30T10:24:41.520Z,26.88
2018-09-30T10:27:07.470Z,26.85
2018-09-30T10:29:33.450Z,27.12
2018-09-30T10:31:59.435Z,26.45
2018-09-30T10:34:25.414Z,25.75
2018-09-30T10:36:51.371Z,26.44
2018-09-30T10:39:17.494Z,25.76
2018-09-30T10:41:43.377Z,27.55
2018-09-30T10:44:09.346Z,24.10
2018-09-30T10:46:35.316Z,25.80
2018-09-30T10:49:01.261Z,25.52
2018-09-30T10:51:27.225Z,24.91
2018-09-30T10:53:53.187Z,24.69
2018-09-30T10:56:19.151Z,26.10
2018-09-30T10:58:45.108Z,25.79
2018-09-30T11:01:11.048Z,24.41
2018-09-30T11:03:37.098Z,25.95
2018-09-30T11:06:02.998Z,25.28
2018-09-30T11:08:28.976Z,24.09
2018-09-30T11:10:54.944Z,25.11
2018-09-30T11:13:20.911Z,24.80
2018-09-30T11:15:46.879Z,24.07
2018-09-30T11:18:12.830Z,23.85
2018-09-30T11:20:38.798Z,23.97
2018-09-30T11:23:04.763Z,24.38
2018-09-30T11:25:30.746Z,23.93
2018-09-30T11:27:56.696Z,24.39
2018-09-30T11:30:22.689Z,23.85
2018-09-30T11:32:48.665Z,24.79
2018-09-30T11:35:14.632Z,23.96
2018-09-30T11:37:40.601Z,24.88
2018-09-30T11:40:06.556Z,24.63
2018-09-30T11:42:32.537Z,24.34
2018-09-30T11:44:58.506Z,23.86
2018-09-30T11:47:24.544Z,25.08
2018-09-30T11:49:50.480Z,24.17
2018-09-30T11:52:16.486Z,23.70
2018-09-30T11:54:42.437Z,24.16
2018-09-30T11:57:08.391Z,24.95
2018-09-30T11:59:34.356Z,25.29
2018-09-30T12:02:00.308Z,24.79
2018-09-30T12:04:26.281Z,24.35
2018-09-30T12:06:52.231Z,24.22
2018-09-30T12:09:18.186Z,24.20
2018-09-30T12:11:44.204Z,23.32
2018-09-30T12:14:10.188Z,23.97
2018-09-30T12:16:36.150Z,23.35
2018-09-30T12:19:02.149Z,24.37
2018-09-30T12:21:28.091Z,24.30
2018-09-30T12:23:54.045Z,24.66
2018-09-30T12:26:19.988Z,24.76
2018-09-30T12:28:45.974Z,24.35
2018-09-30T12:31:11.919Z,24.53
2018-09-30T12:33:37.939Z,25.38
2018-09-30T12:36:03.917Z,25.23
2018-09-30T12:38:29.891Z,24.06
2018-09-30T12:40:55.849Z,23.75
2018-09-30T12:43:21.804Z,23.93
2018-09-30T12:45:47.736Z,24.29
2018-09-30T12:48:13.715Z,24.21
2018-09-30T12:50:39.672Z,24.86
2018-09-30T12:53:05.636Z,25.21
2018-09-30T12:55:31.569Z,24.81
2018-09-30T12:57:57.592Z,25.54
2018-09-30T13:00:23.520Z,24.93
2018-09-30T13:02:49.484Z,24.07
2018-09-30T13:05:15.435Z,24.29
2018-09-30T13:07:41.435Z,24.29
2018-09-30T13:10:07.372Z,23.82
2018-09-30T13:12:33.350Z,23.47
2018-09-30T13:14:59.285Z,24.13
2018-09-30T13:17:25.250Z,24.55
2018-09-30T13:19:51.227Z,23.54
2018-09-30T13:22:17.151Z,24.20
2018-09-30T13:24:43.107Z,23.18
2018-09-30T13:27:09.068Z,23.75
2018-09-30T13:29:35.035Z,23.20
2018-09-30T13:34:33.296Z,23.45
2018-09-30T13:36:59.245Z,22.56
2018-09-30T13:39:25.241Z,22.84
2018-09-30T13:41:51.238Z,22.59
2018-09-30T13:44:17.194Z,22.12
2018-09-30T13:46:43.182Z,21.99
2018-09-30T13:49:09.168Z,22.29
2018-09-30T13:51:35.120Z,21.34
2018-09-30T13:54:01.066Z,22.47
2018-09-30T13:56:27.009Z,22.01
2018-09-30T13:58:53.005Z,21.72
2018-09-30T14:01:18.988Z,21.24
2018-09-30T14:03:44.954Z,21.13
2018-09-30T14:06:10.920Z,21.34
2018-09-30T14:08:36.916Z,21.47
2018-09-30T14:11:02.881Z,21.88
2018-09-30T14:13:28.881Z,21.90
2018-09-30T14:15:54.932Z,21.86
2018-09-30T14:18:21.108Z,22.60
2018-09-30T14:20:47.332Z,22.48
2018-09-30T14:25:45.691Z,22.92
2018-09-30T14:28:11.670Z,22.62
2018-09-30T14:30:37.614Z,22.98
2018-09-30T14:33:03.566Z,22.83
2018-09-30T14:35:29.546Z,23.92
2018-09-30T14:37:55.501Z,23.60
2018-09-30T14:40:21.464Z,24.13
2018-09-30T14:42:47.423Z,24.19
2018-09-30T14:45:13.364Z,23.34
2018-09-30T14:47:39.303Z,23.04
2018-09-30T14:50:05.283Z,23.99
2018-09-30T14:52:31.286Z,23.00
2018-09-30T14:54:57.240Z,24.16
2018-09-30T14:57:23.209Z,23.64
2018-09-30T14:59:49.202Z,24.14
2018-09-30T15:02:15.126Z,23.95
2018-09-30T15:04:41.087Z,24.04
2018-09-30T15:07:07.051Z,24.04
2018-09-30T15:09:33.037Z,23.80
2018-09-30T15:11:58.981Z,23.74
2018-09-30T15:14:24.920Z,23.82
2018-09-30T15:16:50.902Z,23.51
2018-09-30T15:19:16.885Z,23.83
2018-09-30T15:21:42.849Z,23.41
2018-09-30T15:24:08.860Z,23.52
2018-09-30T15:26:34.827Z,24.02
2018-09-30T15:29:00.791Z,24.47
2018-09-30T15:31:26.774Z,24.91
2018-09-30T15:33:52.764Z,25.47
2018-09-30T15:36:18.744Z,26.37
2018-09-30T15:38:44.694Z,27.02
2018-09-30T15:41:10.650Z,26.29
2018-09-30T15:43:36.633Z,26.32
2018-09-30T15:46:02.609Z,26.09
2018-09-30T15:48:28.545Z,26.98
2018-09-30T15:50:54.529Z,26.54
2018-09-30T15:53:20.478Z,27.06
2018-09-30T15:55:46.435Z,26.55
2018-09-30T15:58:12.373Z,26.62
2018-09-30T16:00:38.321Z,27.24
2018-09-30T16:03:04.265Z,26.33
2018-09-30T16:05:30.243Z,27.01
2018-09-30T16:07:56.228Z,26.38
2018-09-30T16:10:22.177Z,27.32
2018-09-30T16:12:48.155Z,27.20
2018-09-30T16:15:14.127Z,27.17
2018-09-30T16:17:40.085Z,26.30
2018-09-30T16:20:06.069Z,26.34
2018-09-30T16:22:32.021Z,26.57
2018-09-30T16:24:58.018Z,26.25
2018-09-30T16:27:23.959Z,26.63
2018-09-30T16:29:49.927Z,27.09
2018-09-30T16:32:15.898Z,26.60
2018-09-30T16:34:41.859Z,26.39
2018-09-30T16:37:07.829Z,27.16
2018-09-30T16:39:33.798Z,27.58
2018-09-30T16:41:59.741Z,26.73
2018-09-30T16:44:25.684Z,27.67
2018-09-30T16:46:51.656Z,27.15
2018-09-30T16:49:17.610Z,26.88
2018-09-30T16:51:43.576Z,26.67
2018-09-30T16:54:09.534Z,26.21
2018-09-30T16:56:35.511Z,26.40
2018-09-30T16:59:01.481Z,26.15
2018-09-30T17:01:27.446Z,26.29
2018-09-30T17:03:53.394Z,27.12
2018-09-30T17:06:19.414Z,26.77
2018-09-30T17:08:45.339Z,26.99
2018-09-30T17:11:11.269Z,27.38
2018-09-30T17:13:37.228Z,28.21
2018-09-30T17:16:03.192Z,28.28
2018-09-30T17:18:29.144Z,28.01
2018-09-30T17:20:55.080Z,28.10
2018-09-30T17:23:21.122Z,28.23
2018-09-30T17:25:47.020Z,28.66
2018-09-30T17:28:12.992Z,28.50
2018-09-30T17:30:38.985Z,28.30
2018-09-30T17:33:04.960Z,28.03
2018-09-30T17:35:30.975Z,29.20
2018-09-30T17:37:56.953Z,28.59
2018-09-30T17:40:22.929Z,29.32
2018-09-30T17:42:48.951Z,29.31
2018-09-30T17:45:14.928Z,29.66
2018-09-30T17:47:40.909Z,29.70
2018-09-30T17:50:06.911Z,29.52
2018-09-30T17:52:32.856Z,29.89
2018-09-30T17:57:31.453Z,29.91
2018-09-30T17:59:57.471Z,30.15
2018-09-30T18:02:23.436Z,30.62
2018-09-30T18:04:49.426Z,30.25
2018-09-30T18:07:15.404Z,30.60
2018-09-30T18:09:41.377Z,30.84
2018-09-30T18:12:07.338Z,31.07
2018-09-30T18:14:33.277Z,31.06
2018-09-30T18:16:59.340Z,31.49
2018-09-30T18:19:25.184Z,31.13
2018-09-30T18:21:51.165Z,31.13
2018-09-30T18:24:17.127Z,30.39
2018-09-30T18:26:43.085Z,31.09
2018-09-30T18:29:09.050Z,30.60
2018-09-30T18:31:34.996Z,29.99
2018-09-30T18:34:00.956Z,30.83
2018-09-30T18:36:26.938Z,29.75
2018-09-30T18:38:52.923Z,29.58
2018-09-30T18:41:18.902Z,30.21
2018-09-30T18:43:44.860Z,30.97
2018-09-30T18:46:10.854Z,31.04
2018-09-30T18:48:36.814Z,31.02
2018-09-30T18:51:02.797Z,31.24
2018-09-30T18:53:28.765Z,30.85
2018-09-30T18:55:54.796Z,31.21
2018-09-30T18:58:20.758Z,31.53
2018-09-30T19:00:46.746Z,31.39
2018-09-30T19:03:12.714Z,32.52
2018-09-30T19:05:38.714Z,31.92
2018-09-30T19:08:04.662Z,32.22
2018-09-30T19:10:30.638Z,32.82
2018-09-30T19:12:56.605Z,32.76
2018-09-30T19:15:22.574Z,31.89
2018-09-30T19:17:48.505Z,31.92
2018-09-30T19:20:14.506Z,33.17
2018-09-30T19:22:40.468Z,33.22
2018-09-30T19:25:06.507Z,32.73
2018-09-30T19:27:32.433Z,32.81
2018-09-30T19:29:58.450Z,32.70
2018-09-30T19:32:24.392Z,33.60
2018-09-30T19:34:50.338Z,33.57
2018-09-30T19:37:16.382Z,33.84
2018-09-30T19:39:42.400Z,33.84
2018-09-30T19:42:08.425Z,33.39
2018-09-30T19:44:34.397Z,33.86
2018-09-30T19:47:00.411Z,34.42
2018-09-30T19:49:26.358Z,34.11
2018-09-30T19:51:52.320Z,34.11
2018-09-30T19:54:18.287Z,34.21
2018-09-30T19:56:44.237Z,35.04
2018-09-30T19:59:10.216Z,34.79
2018-09-30T20:01:36.166Z,35.41
2018-09-30T20:04:02.124Z,34.49
2018-09-30T20:06:28.090Z,34.62
2018-09-30T20:08:54.044Z,34.25
2018-09-30T20:11:19.989Z,34.89
2018-09-30T20:13:45.931Z,34.73
2018-09-30T20:16:11.897Z,34.10
2018-09-30T20:18:37.863Z,33.51
2018-09-30T20:21:03.796Z,34.11
2018-09-30T20:23:29.754Z,34.54
2018-09-30T20:25:55.718Z,34.44
2018-09-30T20:28:21.665Z,35.13
2018-09-30T20:30:47.631Z,35.26
2018-09-30T20:33:13.605Z,34.86
2018-09-30T20:35:39.654Z,34.97
2018-09-30T20:38:05.590Z,35.25
2018-09-30T20:40:31.551Z,36.00
2018-09-30T20:42:57.526Z,35.28
2018-09-30T20:45:23.502Z,35.51
2018-09-30T20:47:49.566Z,35.34
2018-09-30T20:50:15.508Z,35.63
2018-09-30T20:52:41.478Z,35.59
2018-09-30T20:55:07.421Z,35.80
2018-09-30T20:57:33.379Z,35.69
2018-09-30T20:59:59.312Z,35.97
2018-09-30T21:02:25.300Z,35.70
2018-09-30T21:04:51.308Z,36.23
2018-09-30T21:07:17.214Z,36.48
2018-09-30T21:09:43.151Z,35.87
2018-09-30T21:12:09.114Z,36.43
2018-09-30T21:14:35.064Z,36.45
2018-09-30T21:17:01.028Z,36.38
2018-09-30T21:19:26.968Z,35.70
2018-09-30T21:21:52.934Z,36.33
2018-09-30T21:24:18.969Z,35.79
2018-09-30T21:26:44.909Z,36.47
2018-09-30T21:29:10.870Z,36.16
2018-09-30T21:31:36.815Z,35.95
2018-09-30T21:34:02.760Z,36.46
2018-09-30T21:36:28.708Z,36.03
2018-09-30T21:38:54.637Z,36.00
2018-09-30T21:41:20.592Z,36.12
2018-09-30T21:43:46.554Z,36.47
2018-09-30T21:46:12.514Z,37.02
2018-09-30T21:48:38.555Z,37.06
2018-09-30T21:51:04.475Z,37.00
2018-09-30T21:53:30.435Z,37.08
2018-09-30T21:55:56.377Z,36.53
2018-09-30T21:58:22.319Z,37.28
2018-09-30T22:00:48.289Z,36.34
2018-09-30T22:03:14.245Z,36.94
2018-09-30T22:05:40.229Z,36.68
2018-09-30T22:08:06.212Z,36.86
2018-09-30T22:10:32.180Z,36.93
2018-09-30T22:12:58.105Z,36.55
2018-09-30T22:15:24.073Z,36.60
2018-09-30T22:17:50.035Z,37.12
2018-09-30T22:20:16.058Z,36.85
2018-09-30T22:22:41.997Z,36.14
2018-09-30T22:25:11.841Z,36.15
2018-09-30T22:27:37.816Z,36.33
2018-09-30T22:30:03.780Z,36.35
2018-09-30T22:32:29.950Z,36.92
2018-09-30T22:34:55.914Z,36.80
2018-09-30T22:37:22.144Z,36.32
2018-09-30T22:39:48.104Z,36.82
2018-09-30T22:42:14.034Z,36.53
2018-09-30T22:44:40.008Z,37.22
2018-09-30T22:47:05.949Z,37.74
2018-09-30T22:49:31.893Z,37.40
2018-09-30T22:51:57.858Z,37.84
2018-09-30T22:54:23.810Z,37.61
2018-09-30T22:56:49.766Z,37.32
2018-09-30T22:59:15.722Z,37.87
2018-09-30T23:01:41.862Z,37.36
2018-09-30T23:04:08.085Z,37.58
2018-09-30T23:06:34.041Z,37.56
2018-09-30T23:09:00.013Z,37.76
2018-09-30T23:11:25.959Z,37.62
2018-09-30T23:13:51.984Z,37.12
2018-09-30T23:16:17.956Z,37.92
2018-09-30T23:18:43.919Z,37.90
2018-09-30T23:21:10.040Z,37.79
2018-09-30T23:23:35.988Z,37.56
2018-09-30T23:26:01.940Z,37.55
2018-09-30T23:28:27.981Z,38.26
2018-09-30T23:30:53.921Z,38.40
2018-09-30T23:33:19.848Z,38.16
2018-09-30T23:35:45.836Z,38.26
2018-09-30T23:38:11.799Z,38.53
2018-09-30T23:40:37.738Z,38.60
2018-09-30T23:43:03.704Z,37.96
2018-09-30T23:45:29.673Z,38.20
2018-09-30T23:47:55.632Z,37.34
2018-09-30T23:50:21.597Z,37.63
2018-09-30T23:52:47.544Z,37.26
2018-09-30T23:55:13.680Z,37.42
2018-09-30T23:57:39.676Z,37.76
